Time;durP1;ratioP1;P1;durP2;ratioP2;P2;SDS_P1;SDS_P2;PMS_P1;PMS_P2;Temp;Humidity;BMP_temperature;BMP_pressure;BME280_temperature;BME280_humidity;BME280_pressure;Samples;Min_cycle;Max_cycle;Signal;HPM_P1;HPM_P2
2023/10/06 00:01:15;;;;;;;8.85;2.67;;;;;;;;;;4995625;28;19992;-77
2023/10/06 00:03:44;;;;;;;9.45;3.00;;;;;;;;;;4994178;28;20030;-76
2023/10/06 00:06:21;;;;;;;13.55;3.72;;;;;;;;;;4994599;28;20502;-76
2023/10/06 00:08:51;;;;;;;9.23;2.55;;;;;;;;;;4995885;28;20367;-76
2023/10/06 00:11:40;;;;;;;6.82;2.47;;;;;;;;;;4962793;28;20035;-76
2023/10/06 00:14:07;;;;;;;12.35;2.72;;;;;;;;;;4978081;28;20034;-76
2023/10/06 00:16:39;;;;;;;7.55;3.10;;;;;;;;;;4962263;28;20402;-77
2023/10/06 00:19:20;;;;;;;8.82;2.65;;;;;;;;;;4962044;28;20034;-76
2023/10/06 00:21:47;;;;;;;8.73;2.92;;;;;;;;;;4978523;28;20116;-76
2023/10/06 00:24:13;;;;;;;7.78;2.20;;;;;;;;;;4977787;28;20026;-77
2023/10/06 00:26:42;;;;;;;9.55;2.40;;;;;;;;;;4980037;28;20113;-77
2023/10/06 00:29:17;;;;;;;9.57;2.58;;;;;;;;;;4996971;28;20023;-77
2023/10/06 00:31:48;;;;;;;11.65;2.58;;;;;;;;;;4979169;28;20034;-77
2023/10/06 00:34:19;;;;;;;5.88;2.30;;;;;;;;;;4994509;28;20023;-77
2023/10/06 00:36:51;;;;;;;7.97;2.60;;;;;;;;;;4996043;28;20026;-77
2023/10/06 00:39:23;;;;;;;9.35;2.60;;;;;;;;;;4977851;28;20030;-76
2023/10/06 00:41:55;;;;;;;7.63;2.80;;;;;;;;;;4977780;28;20031;-76
2023/10/06 00:44:22;;;;;;;9.88;2.63;;;;;;;;;;4960887;28;20038;-77
2023/10/06 00:46:48;;;;;;;6.25;2.13;;;;;;;;;;4961771;28;20040;-76
2023/10/06 00:49:14;;;;;;;5.97;2.13;;;;;;;;;;4977727;28;20425;-76
2023/10/06 00:51:41;;;;;;;10.48;2.50;;;;;;;;;;4961654;28;20121;-77
2023/10/06 00:54:07;;;;;;;9.75;2.10;;;;;;;;;;4998787;28;20034;-77
2023/10/06 00:56:33;;;;;;;10.88;2.75;;;;;;;;;;4969950;28;20482;-77
2023/10/06 00:59:04;;;;;;;9.93;2.38;;;;;;;;;;4973049;28;20038;-77
2023/10/06 01:01:29;;;;;;;6.05;2.13;;;;;;;;;;5005527;28;20038;-77
2023/10/06 01:04:01;;;;;;;8.80;2.47;;;;;;;;;;5006217;28;20044;-77
2023/10/06 01:06:33;;;;;;;10.02;2.60;;;;;;;;;;5001189;28;20501;-77
2023/10/06 01:09:09;;;;;;;8.90;2.50;;;;;;;;;;4998167;28;20098;-77
2023/10/06 01:11:40;;;;;;;10.85;2.17;;;;;;;;;;4994092;28;20034;-77
2023/10/06 01:14:06;;;;;;;6.38;2.03;;;;;;;;;;4977546;28;20034;-77
2023/10/06 01:16:35;;;;;;;10.15;2.13;;;;;;;;;;4977843;28;20045;-77
2023/10/06 01:19:14;;;;;;;7.53;2.53;;;;;;;;;;4961266;28;20601;-78
2023/10/06 01:21:46;;;;;;;9.35;2.13;;;;;;;;;;4961416;28;20038;-77
2023/10/06 01:24:12;;;;;;;7.72;2.00;;;;;;;;;;4977025;28;20038;-77
2023/10/06 01:26:41;;;;;;;7.95;2.35;;;;;;;;;;4977890;28;20034;-77
2023/10/06 01:29:11;;;;;;;8.60;2.40;;;;;;;;;;4978381;28;20045;-77
2023/10/06 01:31:40;;;;;;;;;;;;;;;;;;4961525;28;20026;-77
2023/10/06 01:34:07;;;;;;;7.93;2.40;;;;;;;;;;4960905;28;19910;-77
2023/10/06 01:36:37;;;;;;;8.07;2.23;;;;;;;;;;4961089;28;20564;-77
2023/10/06 01:39:04;;;;;;;9.30;2.50;;;;;;;;;;4977003;28;20271;-77
2023/10/06 01:41:34;;;;;;;10.73;4.15;;;;;;;;;;4976931;28;20030;-76
2023/10/06 01:44:01;;;;;;;9.50;3.08;;;;;;;;;;4960689;28;20045;-76
2023/10/06 01:46:28;;;;;;;12.75;3.35;;;;;;;;;;4976998;28;20174;-76
2023/10/06 01:48:53;;;;;;;8.30;2.95;;;;;;;;;;4977534;28;20050;-77
2023/10/06 01:51:19;;;;;;;8.30;2.63;;;;;;;;;;4995193;28;20418;-77
2023/10/06 01:53:45;;;;;;;8.35;2.90;;;;;;;;;;4980725;28;20116;-77
2023/10/06 01:56:13;;;;;;;10.50;3.00;;;;;;;;;;5001595;28;20057;-77
2023/10/06 01:58:39;;;;;;;;;;;;;;;;;;5002509;28;20044;-77
2023/10/06 02:01:07;;;;;;;6.60;2.08;;;;;;;;;;4966005;28;19977;-77
2023/10/06 02:03:38;;;;;;;9.57;3.00;;;;;;;;;;4963438;28;20109;-77
2023/10/06 02:06:04;;;;;;;11.88;2.50;;;;;;;;;;4960999;28;20041;-77
2023/10/06 02:08:31;;;;;;;5.97;2.30;;;;;;;;;;4993111;28;20034;-77
2023/10/06 02:10:56;;;;;;;9.27;2.70;;;;;;;;;;4992130;28;20022;-76
2023/10/06 02:13:22;;;;;;;7.10;2.25;;;;;;;;;;4959810;28;20505;-77
2023/10/06 02:15:58;;;;;;;8.77;2.60;;;;;;;;;;4959984;28;20406;-76
2023/10/06 02:18:35;;;;;;;11.57;2.78;;;;;;;;;;4959940;28;20027;-76
2023/10/06 02:21:06;;;;;;;9.25;2.63;;;;;;;;;;4975987;28;20041;-77
2023/10/06 02:23:37;;;;;;;10.07;2.80;;;;;;;;;;4975645;28;20026;-76
2023/10/06 02:26:06;;;;;;;10.40;2.30;;;;;;;;;;4991666;28;20134;-76
2023/10/06 02:28:40;;;;;;;7.28;2.33;;;;;;;;;;4992020;28;20034;-76
2023/10/06 02:31:06;;;;;;;10.40;3.08;;;;;;;;;;4975969;28;20102;-77
2023/10/06 02:33:36;;;;;;;8.55;2.42;;;;;;;;;;4975200;28;20031;-76
2023/10/06 02:36:15;;;;;;;9.05;2.95;;;;;;;;;;4959890;28;20038;-76
2023/10/06 02:38:42;;;;;;;9.82;2.80;;;;;;;;;;4959628;28;20057;-76
2023/10/06 02:41:07;;;;;;;6.47;2.78;;;;;;;;;;4975744;28;20034;-76
2023/10/06 02:43:34;;;;;;;8.25;2.70;;;;;;;;;;4959547;28;20038;-76
2023/10/06 02:46:07;;;;;;;7.90;2.67;;;;;;;;;;4991608;28;20427;-76
2023/10/06 02:48:33;;;;;;;12.27;2.92;;;;;;;;;;4975888;28;20034;-77
2023/10/06 02:51:01;;;;;;;7.72;2.25;;;;;;;;;;4975613;28;20077;-76
2023/10/06 02:53:29;;;;;;;8.15;2.70;;;;;;;;;;4959417;28;20034;-76
2023/10/06 02:55:55;;;;;;;13.43;3.30;;;;;;;;;;4975973;28;20035;-76
2023/10/06 02:58:30;;;;;;;7.78;2.83;;;;;;;;;;4959715;28;20129;-76
2023/10/06 03:00:56;;;;;;;10.30;2.70;;;;;;;;;;4991723;28;20109;-76
2023/10/06 03:03:26;;;;;;;11.60;4.22;;;;;;;;;;4975451;28;20030;-76
2023/10/06 03:05:53;;;;;;;9.48;2.75;;;;;;;;;;4991706;28;20442;-76
2023/10/06 03:08:25;;;;;;;8.45;2.80;;;;;;;;;;4995577;28;20517;-77
2023/10/06 03:10:50;;;;;;;11.00;3.10;;;;;;;;;;4966360;28;20090;-77
2023/10/06 03:13:23;;;;;;;7.18;3.50;;;;;;;;;;4964538;28;20054;-77
2023/10/06 03:15:49;;;;;;;14.15;3.20;;;;;;;;;;4982608;28;20034;-77
2023/10/06 03:18:17;;;;;;;9.43;3.10;;;;;;;;;;4981196;28;20093;-77
2023/10/06 03:21:13;;;;;;;9.90;4.05;;;;;;;;;;4982154;28;20030;-77
2023/10/06 03:23:39;;;;;;;9.57;3.40;;;;;;;;;;4982125;28;20030;-76
2023/10/06 03:26:30;;;;;;;14.93;3.55;;;;;;;;;;4995552;28;20466;-76
2023/10/06 03:29:02;;;;;;;13.32;3.35;;;;;;;;;;4995269;28;20390;-77
2023/10/06 03:31:46;;;;;;;9.75;3.30;;;;;;;;;;4964185;28;20037;-77
2023/10/06 03:34:16;;;;;;;12.23;3.08;;;;;;;;;;4995657;28;20049;-77
2023/10/06 03:36:47;;;;;;;11.35;3.45;;;;;;;;;;4995764;28;20031;-76
2023/10/06 03:39:23;;;;;;;8.40;2.75;;;;;;;;;;4979631;28;20057;-76
2023/10/06 03:41:55;;;;;;;6.85;2.60;;;;;;;;;;4995402;28;20102;-76
2023/10/06 03:44:26;;;;;;;7.10;3.08;;;;;;;;;;4979336;28;20034;-77
2023/10/06 03:46:53;;;;;;;8.93;3.20;;;;;;;;;;5001407;28;20049;-76
2023/10/06 03:49:19;;;;;;;10.02;2.83;;;;;;;;;;4989417;28;20030;-77
2023/10/06 03:51:44;;;;;;;9.40;2.60;;;;;;;;;;5007328;28;20026;-79
2023/10/06 03:54:10;;;;;;;7.78;2.78;;;;;;;;;;4969294;28;20117;-79
2023/10/06 03:56:36;;;;;;;8.18;2.72;;;;;;;;;;4998239;28;20030;-79
2023/10/06 03:59:05;;;;;;;6.97;2.35;;;;;;;;;;4964271;28;20089;-78
2023/10/06 04:01:31;;;;;;;;;;;;;;;;;;4963979;28;20426;-76
2023/10/06 04:04:00;;;;;;;11.50;2.42;;;;;;;;;;4979680;28;20247;-78
2023/10/06 04:06:34;;;;;;;8.75;2.97;;;;;;;;;;4996778;28;20451;-78
2023/10/06 04:08:59;;;;;;;10.82;2.63;;;;;;;;;;4979569;28;20398;-78
2023/10/06 04:11:29;;;;;;;9.13;2.80;;;;;;;;;;4979585;28;20030;-78
2023/10/06 04:13:55;;;;;;;17.48;2.65;;;;;;;;;;4978985;28;20054;-78
2023/10/06 04:16:23;;;;;;;10.93;2.97;;;;;;;;;;4963442;28;20405;-78
2023/10/06 04:18:49;;;;;;;9.75;3.17;;;;;;;;;;4995176;28;20470;-78
2023/10/06 04:21:14;;;;;;;11.02;2.60;;;;;;;;;;4963991;28;20113;-78
2023/10/06 04:23:41;;;;;;;7.38;2.58;;;;;;;;;;4979785;28;20034;-78
2023/10/06 04:26:10;;;;;;;11.50;2.85;;;;;;;;;;4998687;28;20510;-79
2023/10/06 04:28:36;;;;;;;6.63;2.40;;;;;;;;;;4966670;28;20026;-79
2023/10/06 04:31:02;;;;;;;12.38;3.30;;;;;;;;;;4982921;28;20100;-78
2023/10/06 04:33:28;;;;;;;7.72;2.70;;;;;;;;;;4985452;28;20034;-78
2023/10/06 04:35:59;;;;;;;7.38;2.72;;;;;;;;;;4983737;28;20033;-79
2023/10/06 04:38:27;;;;;;;8.05;2.50;;;;;;;;;;4983633;28;20026;-78
2023/10/06 04:40:52;;;;;;;9.18;2.53;;;;;;;;;;4964538;28;20034;-78
2023/10/06 04:43:18;;;;;;;9.15;2.95;;;;;;;;;;4981319;28;20032;-76
2023/10/06 04:45:44;;;;;;;11.38;2.90;;;;;;;;;;4997024;28;20816;-78
2023/10/06 04:48:10;;;;;;;9.00;2.72;;;;;;;;;;4995898;28;20030;-78
2023/10/06 04:50:35;;;;;;;7.95;2.70;;;;;;;;;;4962785;28;20122;-77
2023/10/06 04:53:01;;;;;;;9.13;2.88;;;;;;;;;;4962004;28;20390;-78
2023/10/06 04:55:28;;;;;;;14.63;2.83;;;;;;;;;;4994558;28;20406;-77
2023/10/06 04:57:55;;;;;;;9.38;3.00;;;;;;;;;;4978307;28;20066;-77
2023/10/06 05:00:21;;;;;;;9.45;2.92;;;;;;;;;;4994601;28;20486;-77
2023/10/06 05:02:47;;;;;;;7.90;2.42;;;;;;;;;;4978010;28;20057;-77
2023/10/06 05:05:19;;;;;;;7.15;2.20;;;;;;;;;;4994033;28;20405;-77
2023/10/06 05:07:45;;;;;;;7.18;2.70;;;;;;;;;;4961167;28;20397;-77
2023/10/06 05:10:11;;;;;;;4.68;2.40;;;;;;;;;;4962188;28;20410;-77
2023/10/06 05:12:42;;;;;;;9.40;2.90;;;;;;;;;;4962597;28;20027;-77
2023/10/06 05:15:08;;;;;;;11.15;2.60;;;;;;;;;;4962567;28;20053;-77
2023/10/06 05:17:35;;;;;;;7.53;2.50;;;;;;;;;;4994013;28;20050;-77
2023/10/06 05:20:01;;;;;;;9.68;3.35;;;;;;;;;;4961390;28;20058;-76
2023/10/06 05:22:26;;;;;;;7.97;2.85;;;;;;;;;;4993299;28;20042;-77
2023/10/06 05:24:52;;;;;;;11.57;2.67;;;;;;;;;;4960915;28;20045;-76
2023/10/06 05:27:22;;;;;;;13.65;3.05;;;;;;;;;;4976861;28;20037;-77
2023/10/06 05:29:50;;;;;;;9.98;2.72;;;;;;;;;;4976661;28;20027;-77
2023/10/06 05:32:16;;;;;;;11.52;2.90;;;;;;;;;;4994352;28;20133;-76
2023/10/06 05:34:42;;;;;;;9.63;3.00;;;;;;;;;;4993905;28;20034;-76
2023/10/06 05:37:08;;;;;;;14.32;2.83;;;;;;;;;;4961397;28;20037;-76
2023/10/06 05:39:34;;;;;;;12.13;3.38;;;;;;;;;;4961259;28;20045;-77
2023/10/06 05:42:02;;;;;;;11.73;2.90;;;;;;;;;;4977047;28;20031;-76
2023/10/06 05:44:28;;;;;;;8.77;3.15;;;;;;;;;;4992695;28;20038;-77
2023/10/06 05:46:54;;;;;;;12.55;2.85;;;;;;;;;;4977143;28;20119;-77
2023/10/06 05:49:21;;;;;;;13.02;4.65;;;;;;;;;;4993397;28;20034;-76
2023/10/06 05:51:49;;;;;;;12.23;3.63;;;;;;;;;;4976221;28;20034;-77
2023/10/06 05:54:21;;;;;;;;;;;;;;;;;;4976830;28;20035;-77
2023/10/06 05:56:48;;;;;;;19.35;3.55;;;;;;;;;;4993262;28;19910;-77
2023/10/06 05:59:18;;;;;;;13.10;4.25;;;;;;;;;;4977267;28;20057;-77
2023/10/06 06:01:55;;;;;;;11.95;3.50;;;;;;;;;;4977097;28;20088;-76
2023/10/06 06:04:27;;;;;;;10.00;2.83;;;;;;;;;;4961167;28;20046;-77
2023/10/06 06:06:56;;;;;;;8.93;2.97;;;;;;;;;;4976363;28;20069;-77
2023/10/06 06:09:21;;;;;;;;;;;;;;;;;;4960969;28;20478;-76
2023/10/06 06:11:47;;;;;;;9.25;3.38;;;;;;;;;;4976414;28;20049;-77
2023/10/06 06:14:12;;;;;;;8.30;3.10;;;;;;;;;;4977193;28;20065;-77
2023/10/06 06:16:44;;;;;;;8.20;3.28;;;;;;;;;;4977029;28;20084;-77
2023/10/06 06:19:11;;;;;;;11.40;4.15;;;;;;;;;;4977683;28;20034;-77
2023/10/06 06:21:38;;;;;;;12.20;2.92;;;;;;;;;;4960901;28;20076;-77
2023/10/06 06:24:06;;;;;;;17.00;4.57;;;;;;;;;;4994032;28;20038;-77
2023/10/06 06:26:38;;;;;;;8.75;3.28;;;;;;;;;;4981704;28;20034;-77
2023/10/06 06:29:04;;;;;;;7.03;3.20;;;;;;;;;;4969527;28;20441;-77
2023/10/06 06:31:32;;;;;;;9.95;3.70;;;;;;;;;;4985802;28;20037;-77
2023/10/06 06:34:04;;;;;;;12.40;4.10;;;;;;;;;;4998694;28;20034;-77
2023/10/06 06:36:31;;;;;;;11.68;3.33;;;;;;;;;;4998965;28;20383;-77
2023/10/06 06:38:58;;;;;;;7.65;3.00;;;;;;;;;;4965952;28;20030;-77
2023/10/06 06:41:24;;;;;;;12.30;3.50;;;;;;;;;;4964387;28;20117;-77
2023/10/06 06:43:54;;;;;;;10.50;3.55;;;;;;;;;;4982549;28;20490;-77
2023/10/06 06:46:20;;;;;;;9.35;3.10;;;;;;;;;;4987697;28;20042;-77
2023/10/06 06:48:46;;;;;;;10.23;3.70;;;;;;;;;;4999220;28;20036;-77
2023/10/06 06:51:12;;;;;;;13.88;3.65;;;;;;;;;;4983020;28;20030;-77
2023/10/06 06:53:39;;;;;;;7.75;2.92;;;;;;;;;;4981441;28;20038;-76
2023/10/06 06:56:05;;;;;;;10.43;3.13;;;;;;;;;;4982451;28;20478;-77
2023/10/06 06:58:32;;;;;;;8.05;3.33;;;;;;;;;;4999611;28;20088;-77
2023/10/06 07:00:58;;;;;;;8.32;3.00;;;;;;;;;;4982347;28;20494;-77
2023/10/06 07:03:24;;;;;;;14.73;4.38;;;;;;;;;;4999424;28;20045;-77
2023/10/06 07:05:54;;;;;;;10.13;3.40;;;;;;;;;;4970427;28;20034;-77
2023/10/06 07:08:20;;;;;;;12.07;3.03;;;;;;;;;;4975506;28;20030;-78
2023/10/06 07:10:52;;;;;;;13.50;4.18;;;;;;;;;;4995612;28;20062;-78
2023/10/06 07:13:22;;;;;;;20.42;3.78;;;;;;;;;;4971879;28;20180;-77
2023/10/06 07:15:50;;;;;;;12.90;4.10;;;;;;;;;;5002730;28;20022;-76
2023/10/06 07:18:16;;;;;;;;;;;;;;;;;;4983603;28;20121;-78
2023/10/06 07:20:44;;;;;;;9.75;3.03;;;;;;;;;;4967213;28;19913;-77
2023/10/06 07:23:09;;;;;;;13.50;3.47;;;;;;;;;;4965627;28;20038;-78
2023/10/06 07:25:37;;;;;;;10.43;2.90;;;;;;;;;;4981957;28;20114;-77
2023/10/06 07:28:02;;;;;;;9.77;3.15;;;;;;;;;;4981388;28;20049;-78
2023/10/06 07:30:34;;;;;;;10.50;3.10;;;;;;;;;;4983178;28;20033;-78
2023/10/06 07:33:00;;;;;;;8.13;2.83;;;;;;;;;;4981551;28;20022;-77
2023/10/06 07:35:51;;;;;;;11.10;3.08;;;;;;;;;;4982052;28;20026;-78
2023/10/06 07:38:13;;;;;;;13.80;2.78;;;;;;;;;;4999194;28;20096;-77
2023/10/06 07:40:38;;;;;;;8.63;3.30;;;;;;;;;;4981226;28;20034;-78
2023/10/06 07:43:05;;;;;;;7.50;2.80;;;;;;;;;;4999223;28;20391;-79
2023/10/06 07:45:31;;;;;;;8.88;2.65;;;;;;;;;;5000626;28;20030;-78
2023/10/06 07:47:57;;;;;;;8.80;3.17;;;;;;;;;;4967039;28;20034;-78
2023/10/06 07:50:26;;;;;;;8.98;2.85;;;;;;;;;;4983071;28;20041;-79
2023/10/06 07:52:52;;;;;;;;;;;;;;;;;;4982028;28;20027;-78
2023/10/06 07:55:21;;;;;;;7.57;3.05;;;;;;;;;;4981823;28;19933;-78
2023/10/06 07:57:48;;;;;;;8.15;3.00;;;;;;;;;;4998227;28;20064;-78
2023/10/06 08:00:38;;;;;;;15.05;3.25;;;;;;;;;;4965758;28;20038;-78
2023/10/06 08:03:04;;;;;;;7.53;3.03;;;;;;;;;;4981956;28;20132;-78
2023/10/06 08:05:30;;;;;;;9.88;2.92;;;;;;;;;;4996855;28;20509;-78
2023/10/06 08:07:58;;;;;;;16.67;3.00;;;;;;;;;;4997406;28;20030;-78
2023/10/06 08:10:24;;;;;;;9.38;2.80;;;;;;;;;;4997196;28;20105;-78
2023/10/06 08:12:51;;;;;;;8.77;2.70;;;;;;;;;;4982348;28;20057;-78
2023/10/06 08:15:17;;;;;;;8.55;2.72;;;;;;;;;;4965427;28;20026;-78
2023/10/06 08:17:48;;;;;;;7.78;3.10;;;;;;;;;;4967586;28;20038;-78
2023/10/06 08:20:15;;;;;;;12.82;3.22;;;;;;;;;;4980937;28;20110;-78
2023/10/06 08:22:41;;;;;;;8.85;2.67;;;;;;;;;;4996935;28;20034;-76
2023/10/06 08:25:09;;;;;;;7.65;2.58;;;;;;;;;;4980872;28;20038;-78
2023/10/06 08:27:35;;;;;;;13.02;2.83;;;;;;;;;;4980696;28;20030;-78
2023/10/06 08:30:02;;;;;;;8.75;2.65;;;;;;;;;;4981324;28;20030;-78
2023/10/06 08:32:27;;;;;;;9.35;3.17;;;;;;;;;;4998245;28;20026;-78
2023/10/06 08:34:54;;;;;;;9.75;2.80;;;;;;;;;;4981912;28;20556;-78
2023/10/06 08:37:20;;;;;;;6.40;2.47;;;;;;;;;;4981111;28;20088;-78
2023/10/06 08:39:46;;;;;;;9.07;2.55;;;;;;;;;;4980940;28;20030;-78
2023/10/06 08:42:15;;;;;;;7.20;2.63;;;;;;;;;;4981387;28;20030;-78
2023/10/06 08:44:41;;;;;;;14.38;2.70;;;;;;;;;;4996643;28;20034;-78
2023/10/06 08:47:12;;;;;;;10.55;2.50;;;;;;;;;;4966131;28;20459;-78
2023/10/06 08:49:43;;;;;;;11.60;2.67;;;;;;;;;;4965248;28;20039;-78
2023/10/06 08:52:12;;;;;;;10.18;2.65;;;;;;;;;;4996946;28;20094;-77
2023/10/06 08:54:37;;;;;;;;;;;;;;;;;;4981386;28;20114;-78
2023/10/06 08:57:03;;;;;;;11.30;2.35;;;;;;;;;;4982101;28;19910;-78
2023/10/06 08:59:33;;;;;;;8.05;2.33;;;;;;;;;;4966004;28;20406;-78
2023/10/06 09:01:59;;;;;;;7.57;2.63;;;;;;;;;;4965568;28;20037;-78
2023/10/06 09:04:31;;;;;;;13.35;3.78;;;;;;;;;;5000439;28;20080;-78
2023/10/06 09:07:15;;;;;;;9.32;2.78;;;;;;;;;;4992457;28;20045;-78
2023/10/06 09:09:42;;;;;;;10.30;2.47;;;;;;;;;;4980021;28;20061;-78
2023/10/06 09:12:09;;;;;;;5.60;2.38;;;;;;;;;;4996537;28;20086;-78
2023/10/06 09:14:49;;;;;;;9.52;2.25;;;;;;;;;;4994768;28;20030;-78
2023/10/06 09:17:16;;;;;;;7.60;2.40;;;;;;;;;;5008593;28;20497;-78
2023/10/06 09:19:46;;;;;;;6.78;2.90;;;;;;;;;;4989546;28;20092;-78
2023/10/06 09:22:14;;;;;;;7.47;2.58;;;;;;;;;;4990584;28;20088;-78
2023/10/06 09:24:39;;;;;;;8.00;2.45;;;;;;;;;;4970542;28;20037;-78
2023/10/06 09:27:21;;;;;;;5.95;2.20;;;;;;;;;;4989115;28;20117;-78
2023/10/06 09:29:47;;;;;;;9.77;2.80;;;;;;;;;;5004890;28;20053;-78
2023/10/06 09:32:20;;;;;;;7.05;2.38;;;;;;;;;;5002294;28;20027;-77
2023/10/06 09:34:46;;;;;;;9.13;2.78;;;;;;;;;;4981259;28;20035;-78
2023/10/06 09:37:19;;;;;;;11.23;2.63;;;;;;;;;;4994690;28;20092;-77
2023/10/06 09:39:57;;;;;;;6.90;2.40;;;;;;;;;;4964449;28;20045;-78
2023/10/06 09:42:30;;;;;;;10.57;2.83;;;;;;;;;;4981704;28;20477;-78
2023/10/06 09:45:03;;;;;;;9.43;2.55;;;;;;;;;;4984535;28;20081;-78
2023/10/06 09:47:31;;;;;;;8.68;2.55;;;;;;;;;;5002734;28;20046;-77
2023/10/06 09:49:58;;;;;;;9.60;3.58;;;;;;;;;;4999339;28;20181;-78
2023/10/06 09:52:25;;;;;;;6.88;2.28;;;;;;;;;;5000506;28;20030;-78
2023/10/06 09:54:54;;;;;;;8.18;2.20;;;;;;;;;;4964321;28;20482;-78
2023/10/06 09:57:24;;;;;;;5.70;2.55;;;;;;;;;;4998187;28;20030;-78
2023/10/06 09:59:52;;;;;;;7.85;2.80;;;;;;;;;;4982831;28;20030;-78
2023/10/06 10:02:20;;;;;;;8.95;3.15;;;;;;;;;;4999738;28;20026;-78
2023/10/06 10:04:47;;;;;;;8.13;2.40;;;;;;;;;;4980991;28;20026;-78
2023/10/06 10:07:13;;;;;;;11.80;2.60;;;;;;;;;;4996704;28;20085;-78
2023/10/06 10:09:43;;;;;;;9.30;2.65;;;;;;;;;;4996482;28;20414;-77
2023/10/06 10:12:09;;;;;;;10.98;2.53;;;;;;;;;;4978541;28;20053;-78
2023/10/06 10:14:59;;;;;;;6.90;2.25;;;;;;;;;;4979615;28;20030;-78
2023/10/06 10:17:37;;;;;;;9.35;2.25;;;;;;;;;;4963874;28;20057;-78
2023/10/06 10:20:09;;;;;;;7.40;2.67;;;;;;;;;;4980787;28;20045;-78
2023/10/06 10:22:34;;;;;;;9.82;2.70;;;;;;;;;;4980319;28;20035;-78
2023/10/06 10:25:00;;;;;;;7.10;2.50;;;;;;;;;;4978984;28;20053;-78
2023/10/06 10:27:26;;;;;;;8.52;2.50;;;;;;;;;;4978708;28;20494;-77
2023/10/06 10:29:54;;;;;;;9.73;2.67;;;;;;;;;;4994660;28;20092;-77
2023/10/06 10:32:23;;;;;;;;;;;;;;;;;;4962607;28;20509;-78
2023/10/06 10:35:06;;;;;;;6.43;2.15;;;;;;;;;;4994865;28;19948;-78
2023/10/06 10:37:31;;;;;;;11.65;2.05;;;;;;;;;;4962604;28;20057;-78
2023/10/06 10:39:58;;;;;;;10.80;2.28;;;;;;;;;;4998070;28;20382;-78
2023/10/06 10:42:37;;;;;;;5.85;2.20;;;;;;;;;;4996045;28;20042;-78
2023/10/06 10:45:22;;;;;;;8.13;2.40;;;;;;;;;;4978911;28;20030;-78
2023/10/06 10:47:48;;;;;;;9.77;2.25;;;;;;;;;;4980867;28;20034;-78
2023/10/06 10:50:14;;;;;;;9.77;2.45;;;;;;;;;;4983716;28;20058;-78
2023/10/06 10:52:40;;;;;;;9.32;2.25;;;;;;;;;;4981753;28;20038;-78
2023/10/06 10:55:06;;;;;;;8.25;2.95;;;;;;;;;;4981082;28;20023;-77
2023/10/06 10:57:35;;;;;;;6.45;2.22;;;;;;;;;;4998352;28;20030;-78
2023/10/06 11:02:40;;;;;;;9.98;2.47;;;;;;;;;;4979889;28;20182;-78
2023/10/06 11:05:06;;;;;;;7.60;2.13;;;;;;;;;;4995176;28;20030;-78
2023/10/06 11:07:31;;;;;;;6.15;2.72;;;;;;;;;;4995919;28;20094;-78
2023/10/06 11:09:57;;;;;;;5.10;2.03;;;;;;;;;;4995093;28;20057;-78
2023/10/06 11:12:24;;;;;;;7.32;2.30;;;;;;;;;;4996013;28;20031;-78
2023/10/06 11:14:50;;;;;;;10.82;2.78;;;;;;;;;;4964370;28;20031;-78
2023/10/06 11:17:18;;;;;;;8.32;2.00;;;;;;;;;;4997251;28;20109;-78
2023/10/06 11:19:44;;;;;;;12.32;2.20;;;;;;;;;;4965566;28;20038;-78
2023/10/06 11:22:11;;;;;;;9.50;2.53;;;;;;;;;;4980966;28;20033;-78
2023/10/06 11:24:39;;;;;;;5.38;1.90;;;;;;;;;;4964614;28;20077;-78
2023/10/06 11:27:15;;;;;;;6.23;2.17;;;;;;;;;;4979505;28;20136;-78
2023/10/06 11:29:40;;;;;;;9.60;2.28;;;;;;;;;;4982927;28;20395;-78
2023/10/06 11:32:06;;;;;;;8.68;2.60;;;;;;;;;;4968172;28;20069;-78
2023/10/06 11:34:32;;;;;;;7.07;2.55;;;;;;;;;;4984033;28;20165;-78
2023/10/06 11:36:57;;;;;;;6.25;2.10;;;;;;;;;;4999111;28;20105;-77
2023/10/06 11:39:24;;;;;;;7.55;2.35;;;;;;;;;;4996884;28;20031;-77
2023/10/06 11:41:50;;;;;;;6.47;2.20;;;;;;;;;;4981887;28;20061;-78
2023/10/06 11:44:18;;;;;;;6.05;2.00;;;;;;;;;;4983129;28;20040;-78
2023/10/06 11:46:50;;;;;;;7.75;1.80;;;;;;;;;;4983634;28;20034;-77
2023/10/06 11:49:19;;;;;;;6.18;1.92;;;;;;;;;;4972968;28;20049;-77
2023/10/06 11:51:45;;;;;;;7.18;2.05;;;;;;;;;;4993886;28;20022;-78
2023/10/06 11:54:10;;;;;;;12.57;2.42;;;;;;;;;;4993469;28;20611;-78
2023/10/06 11:56:56;;;;;;;5.55;3.00;;;;;;;;;;4993936;28;20364;-78
2023/10/06 11:59:22;;;;;;;8.18;2.40;;;;;;;;;;4979747;28;20034;-78
2023/10/06 12:01:50;;;;;;;6.75;2.00;;;;;;;;;;5014137;28;20030;-79
2023/10/06 12:04:16;;;;;;;;;;;;;;;;;;4996980;28;20022;-79
2023/10/06 12:06:42;;;;;;;8.75;2.28;;;;;;;;;;5006539;28;19925;-78
2023/10/06 12:09:12;;;;;;;7.78;2.00;;;;;;;;;;4988360;28;20030;-79
2023/10/06 12:11:38;;;;;;;7.40;2.20;;;;;;;;;;4984501;28;20052;-78
2023/10/06 12:14:05;;;;;;;7.38;1.88;;;;;;;;;;4981132;28;20030;-77
2023/10/06 12:16:33;;;;;;;10.77;2.80;;;;;;;;;;4967451;28;20088;-77
2023/10/06 12:19:00;;;;;;;9.25;2.10;;;;;;;;;;4981702;28;20394;-78
2023/10/06 12:21:26;;;;;;;6.13;2.00;;;;;;;;;;4963605;28;20042;-76
2023/10/06 12:23:52;;;;;;;5.13;1.85;;;;;;;;;;4996570;28;20117;-76
2023/10/06 12:26:18;;;;;;;8.38;2.10;;;;;;;;;;4996828;28;20516;-78
2023/10/06 12:28:43;;;;;;;4.30;1.77;;;;;;;;;;5000158;28;20026;-77
2023/10/06 12:31:11;;;;;;;8.32;1.88;;;;;;;;;;4980844;28;20030;-76
2023/10/06 12:33:38;;;;;;;3.97;1.58;;;;;;;;;;4964270;28;20031;-79
2023/10/06 12:36:08;;;;;;;6.40;1.75;;;;;;;;;;4979941;28;20035;-78
2023/10/06 12:38:34;;;;;;;5.40;1.80;;;;;;;;;;4979321;28;20057;-78
2023/10/06 12:41:00;;;;;;;7.70;1.77;;;;;;;;;;4994635;28;20034;-78
2023/10/06 12:43:25;;;;;;;10.60;1.70;;;;;;;;;;4998244;28;20026;-78
2023/10/06 12:45:51;;;;;;;8.13;2.05;;;;;;;;;;4979886;28;20510;-77
2023/10/06 12:48:17;;;;;;;5.35;1.65;;;;;;;;;;4965686;28;20030;-78
2023/10/06 12:50:43;;;;;;;6.43;2.13;;;;;;;;;;4965320;28;20035;-78
2023/10/06 12:53:10;;;;;;;7.07;2.00;;;;;;;;;;4981177;28;20089;-78
2023/10/06 12:55:36;;;;;;;8.63;1.67;;;;;;;;;;4963380;28;20050;-77
2023/10/06 12:58:03;;;;;;;7.18;2.15;;;;;;;;;;4995889;28;20126;-77
2023/10/06 13:00:30;;;;;;;7.28;1.85;;;;;;;;;;4997132;28;20038;-78
2023/10/06 13:02:56;;;;;;;4.30;1.95;;;;;;;;;;4964503;28;20034;-78
2023/10/06 13:05:22;;;;;;;6.95;1.70;;;;;;;;;;4980314;28;20057;-77
2023/10/06 13:07:49;;;;;;;5.40;1.38;;;;;;;;;;4995203;28;20030;-78
2023/10/06 13:10:16;;;;;;;7.60;1.88;;;;;;;;;;4979263;28;20041;-78
2023/10/06 13:12:42;;;;;;;4.13;1.80;;;;;;;;;;4979008;28;20787;-79
2023/10/06 13:15:17;;;;;;;7.47;2.00;;;;;;;;;;4979484;28;20031;-78
2023/10/06 13:17:45;;;;;;;9.40;2.03;;;;;;;;;;4979922;28;20102;-78
2023/10/06 13:20:13;;;;;;;6.63;1.90;;;;;;;;;;4978953;28;20034;-78
2023/10/06 13:22:40;;;;;;;7.05;1.60;;;;;;;;;;4962328;28;20090;-78
2023/10/06 13:25:14;;;;;;;9.23;1.77;;;;;;;;;;4994107;28;20129;-77
2023/10/06 13:27:41;;;;;;;8.27;1.70;;;;;;;;;;4979422;28;20100;-78
2023/10/06 13:30:13;;;;;;;7.50;1.67;;;;;;;;;;4962858;28;20026;-77
2023/10/06 13:32:44;;;;;;;5.45;1.55;;;;;;;;;;4978460;28;20536;-77
2023/10/06 13:35:16;;;;;;;7.22;1.45;;;;;;;;;;4995495;28;20030;-79
2023/10/06 13:37:45;;;;;;;6.85;2.20;;;;;;;;;;4978999;28;20046;-77
2023/10/06 13:40:12;;;;;;;9.15;1.90;;;;;;;;;;4995893;28;20061;-79
2023/10/06 13:42:41;;;;;;;6.95;1.60;;;;;;;;;;4981040;28;20034;-76
2023/10/06 13:45:23;;;;;;;7.05;1.98;;;;;;;;;;4996869;28;20125;-79
2023/10/06 13:47:52;;;;;;;6.80;1.70;;;;;;;;;;4995588;28;20081;-77
2023/10/06 13:50:18;;;;;;;;;;;;;;;;;;4998211;28;20062;-79
2023/10/06 13:52:44;;;;;;;6.65;1.90;;;;;;;;;;4997884;28;19910;-77
2023/10/06 13:55:10;;;;;;;5.13;1.80;;;;;;;;;;4996785;28;20033;-78
2023/10/06 13:57:40;;;;;;;5.72;1.60;;;;;;;;;;4979813;28;20041;-78
2023/10/06 14:00:08;;;;;;;6.53;1.90;;;;;;;;;;4962980;28;20367;-78
2023/10/06 14:02:38;;;;;;;4.70;1.58;;;;;;;;;;4993906;28;20497;-77
2023/10/06 14:05:07;;;;;;;8.55;1.85;;;;;;;;;;4962681;28;20049;-79
2023/10/06 14:07:33;;;;;;;6.10;2.00;;;;;;;;;;4978319;28;20106;-77
2023/10/06 14:09:59;;;;;;;11.45;2.35;;;;;;;;;;4979033;28;20033;-78
2023/10/06 14:12:27;;;;;;;8.20;2.17;;;;;;;;;;4996428;28;20387;-78
2023/10/06 14:17:20;;;;;;;8.98;2.13;;;;;;;;;;4981429;28;20026;-79
2023/10/06 14:19:52;;;;;;;4.80;1.80;;;;;;;;;;4964589;28;20466;-80
2023/10/06 14:22:21;;;;;;;10.70;1.95;;;;;;;;;;5000298;28;20048;-78
2023/10/06 14:24:52;;;;;;;7.63;2.05;;;;;;;;;;5003462;28;20050;-78
2023/10/06 14:27:18;;;;;;;7.70;1.83;;;;;;;;;;5004472;28;20042;-78
2023/10/06 14:29:44;;;;;;;5.13;2.30;;;;;;;;;;4989017;28;20026;-76
2023/10/06 14:34:58;;;;;;;6.78;1.70;;;;;;;;;;5006172;28;20026;-77
2023/10/06 14:37:39;;;;;;;6.65;2.17;;;;;;;;;;4992691;28;20128;-78
2023/10/06 14:48:19;;;;;;;4.97;1.73;;;;;;;;;;5001079;28;20061;-78
2023/10/06 14:50:45;;;;;;;10.07;2.47;;;;;;;;;;4995854;28;20022;-77
2023/10/06 14:53:14;;;;;;;4.65;1.85;;;;;;;;;;4993540;28;20034;-77
2023/10/06 14:55:39;;;;;;;5.72;1.83;;;;;;;;;;4994656;28;20376;-77
2023/10/06 14:58:12;;;;;;;8.60;2.17;;;;;;;;;;4996899;28;20033;-78
2023/10/06 15:00:38;;;;;;;5.55;1.83;;;;;;;;;;4996556;28;20382;-78
2023/10/06 15:03:08;;;;;;;6.88;2.40;;;;;;;;;;4981277;28;20038;-78
2023/10/06 15:05:36;;;;;;;6.50;1.63;;;;;;;;;;4983661;28;20022;-77
2023/10/06 15:08:09;;;;;;;5.85;1.83;;;;;;;;;;4984167;28;20100;-77